sensor_id;sensor_type;location;lat;lon;timestamp;pressure;altitude;pressure_sealevel;temperature;humidity
10145;BME280;5113;41.822;23.564;2023-03-14T07:28:41;-11041.13;;;3.86;79.96
10145;BME280;5113;41.822;23.564;2023-03-14T07:31:48;-11033.28;;;3.58;83.21
10145;BME280;5113;41.822;23.564;2023-03-14T07:34:54;-11035.66;;;3.67;76.48
10145;BME280;5113;41.822;23.564;2023-03-14T07:38:01;-11054.19;;;4.34;78.91
10145;BME280;5113;41.822;23.564;2023-03-14T07:41:07;-11058.97;;;4.51;77.35
10145;BME280;5113;41.822;23.564;2023-03-14T07:44:15;-11061.75;;;4.61;76.47
10145;BME280;5113;41.822;23.564;2023-03-14T07:47:21;-11066.25;;;4.77;77.49
10145;BME280;5113;41.822;23.564;2023-03-14T07:50:28;-11073.00;;;5.02;74.70
10145;BME280;5113;41.822;23.564;2023-03-14T07:53:34;-11075.66;;;5.11;71.91
10145;BME280;5113;41.822;23.564;2023-03-14T07:56:40;-11087.16;;;5.53;73.00
10145;BME280;5113;41.822;23.564;2023-03-14T07:59:48;-11104.88;;;6.17;70.55
10145;BME280;5113;41.822;23.564;2023-03-14T08:02:54;-11100.50;;;6.01;68.81
10145;BME280;5113;41.822;23.564;2023-03-14T08:06:01;-11095.59;;;5.83;68.80
10145;BME280;5113;41.822;23.564;2023-03-14T08:09:07;-11111.31;;;6.40;65.45
10145;BME280;5113;41.822;23.564;2023-03-14T08:12:13;-11110.47;;;6.37;62.86
10145;BME280;5113;41.822;23.564;2023-03-14T08:15:22;-11108.78;;;6.31;65.66
10145;BME280;5113;41.822;23.564;2023-03-14T08:18:29;-11112.72;;;6.45;64.11
10145;BME280;5113;41.822;23.564;2023-03-14T08:21:35;-11128.88;;;7.04;62.80
10145;BME280;5113;41.822;23.564;2023-03-14T08:24:41;-11135.63;;;7.28;59.80
10145;BME280;5113;41.822;23.564;2023-03-14T08:27:48;-11128.47;;;7.02;60.06
10145;BME280;5113;41.822;23.564;2023-03-14T08:30:56;-11130.97;;;7.11;59.48
10145;BME280;5113;41.822;23.564;2023-03-14T08:34:03;-11141.09;;;7.48;56.11
10145;BME280;5113;41.822;23.564;2023-03-14T08:37:11;-11149.53;;;7.78;58.81
10145;BME280;5113;41.822;23.564;2023-03-14T08:40:29;-11150.94;;;7.83;55.55
10145;BME280;5113;41.822;23.564;2023-03-14T08:43:36;-11140.81;;;7.47;56.01
10145;BME280;5113;41.822;23.564;2023-03-14T08:46:43;-11159.50;;;8.14;54.73
10145;BME280;5113;41.822;23.564;2023-03-14T08:49:50;-11153.47;;;7.92;55.69
10145;BME280;5113;41.822;23.564;2023-03-14T08:52:56;-11169.06;;;8.49;53.66
10145;BME280;5113;41.822;23.564;2023-03-14T08:56:05;-11169.78;;;8.51;54.46
10145;BME280;5113;41.822;23.564;2023-03-14T08:59:12;-11186.22;;;9.11;54.08
10145;BME280;5113;41.822;23.564;2023-03-14T09:02:19;-11185.78;;;9.09;53.28
10145;BME280;5113;41.822;23.564;2023-03-14T09:05:26;-11199.72;;;9.59;51.16
10145;BME280;5113;41.822;23.564;2023-03-14T09:08:32;-11192.25;;;9.33;51.72
10145;BME280;5113;41.822;23.564;2023-03-14T09:11:41;-11194.94;;;9.42;52.60
10145;BME280;5113;41.822;23.564;2023-03-14T09:14:47;-11189.44;;;9.22;51.71
10145;BME280;5113;41.822;23.564;2023-03-14T09:17:55;-11199.00;;;9.57;50.90
10145;BME280;5113;41.822;23.564;2023-03-14T09:21:02;-11209.41;;;9.94;50.55
10145;BME280;5113;41.822;23.564;2023-03-14T09:24:09;-11216.44;;;10.20;50.30
10145;BME280;5113;41.822;23.564;2023-03-14T09:27:16;-11229.37;;;10.67;50.48
10145;BME280;5113;41.822;23.564;2023-03-14T09:30:22;-11205.47;;;9.80;50.34
10145;BME280;5113;41.822;23.564;2023-03-14T09:33:30;-11223.19;;;10.44;51.52
10145;BME280;5113;41.822;23.564;2023-03-14T09:36:37;-11222.63;;;10.42;50.22
10145;BME280;5113;41.822;23.564;2023-03-14T09:39:44;-11246.00;;;11.27;48.29
10145;BME280;5113;41.822;23.564;2023-03-14T09:42:51;-11265.13;;;11.96;48.39
10145;BME280;5113;41.822;23.564;2023-03-14T09:46:01;-11233.03;;;10.80;48.40
10145;BME280;5113;41.822;23.564;2023-03-14T09:49:12;-11240.78;;;11.08;48.61
10145;BME280;5113;41.822;23.564;2023-03-14T09:52:24;-11268.50;;;12.08;47.70
10145;BME280;5113;41.822;23.564;2023-03-14T09:55:32;-11247.13;;;11.31;47.36
10145;BME280;5113;41.822;23.564;2023-03-14T09:58:42;-11254.56;;;11.57;46.93
10145;BME280;5113;41.822;23.564;2023-03-14T10:01:50;-11251.34;;;11.46;47.03
10145;BME280;5113;41.822;23.564;2023-03-14T10:04:58;-11257.53;;;11.68;46.49
10145;BME280;5113;41.822;23.564;2023-03-14T10:08:10;-11250.34;;;11.42;46.00
10145;BME280;5113;41.822;23.564;2023-03-14T10:11:17;-11273.00;;;12.24;45.43
10145;BME280;5113;41.822;23.564;2023-03-14T10:14:32;-11258.38;;;11.71;46.60
10145;BME280;5113;41.822;23.564;2023-03-14T10:17:40;-11301.16;;;13.26;44.75
10145;BME280;5113;41.822;23.564;2023-03-14T10:20:49;-11326.22;;;14.16;43.37
10145;BME280;5113;41.822;23.564;2023-03-14T10:24:15;-11289.06;;;12.82;43.39
10145;BME280;5113;41.822;23.564;2023-03-14T10:27:28;-11290.47;;;12.87;43.91
10145;BME280;5113;41.822;23.564;2023-03-14T10:30:39;-11311.56;;;13.63;42.99
10145;BME280;5113;41.822;23.564;2023-03-14T10:33:59;-11323.97;;;14.08;43.13
10145;BME280;5113;41.822;23.564;2023-03-14T10:37:16;-11340.31;;;14.67;40.95
10145;BME280;5113;41.822;23.564;2023-03-14T10:40:28;-11304.25;;;13.37;42.59
10145;BME280;5113;41.822;23.564;2023-03-14T10:43:36;-11327.63;;;14.21;41.83
10145;BME280;5113;41.822;23.564;2023-03-14T10:46:43;-11318.47;;;13.88;42.32
10145;BME280;5113;41.822;23.564;2023-03-14T10:49:50;-11340.88;;;14.69;41.13
10145;BME280;5113;41.822;23.564;2023-03-14T10:53:02;-11349.03;;;14.98;41.15
10145;BME280;5113;41.822;23.564;2023-03-14T10:56:14;-11347.34;;;14.92;41.23
10145;BME280;5113;41.822;23.564;2023-03-14T10:59:20;-11371.56;;;15.79;40.25
10145;BME280;5113;41.822;23.564;2023-03-14T11:02:34;-11356.38;;;15.25;39.90
10145;BME280;5113;41.822;23.564;2023-03-14T11:05:47;-11350.31;;;15.03;38.39
10145;BME280;5113;41.822;23.564;2023-03-14T11:09:02;-11366.78;;;15.62;37.79
10145;BME280;5113;41.822;23.564;2023-03-14T11:12:25;-11374.69;;;15.91;37.18
10145;BME280;5113;41.822;23.564;2023-03-14T11:15:40;-11368.19;;;15.67;36.17
10145;BME280;5113;41.822;23.564;2023-03-14T11:22:38;-11355.38;;;15.21;36.32
10145;BME280;5113;41.822;23.564;2023-03-14T11:25:54;-11390.59;;;16.48;36.38
10145;BME280;5113;41.822;23.564;2023-03-14T11:29:16;-11396.94;;;16.71;35.95
10145;BME280;5113;41.822;23.564;2023-03-14T11:32:36;-11413.28;;;17.30;35.25
10145;BME280;5113;41.822;23.564;2023-03-14T11:35:52;-11381.03;;;16.13;35.95
10145;BME280;5113;41.822;23.564;2023-03-14T11:39:00;-11365.25;;;15.57;36.91
10145;BME280;5113;41.822;23.564;2023-03-14T11:42:11;-11361.16;;;15.42;36.71
10145;BME280;5113;41.822;23.564;2023-03-14T11:45:22;-11370.59;;;15.76;37.48
10145;BME280;5113;41.822;23.564;2023-03-14T11:48:44;-11401.72;;;16.88;35.09
10145;BME280;5113;41.822;23.564;2023-03-14T11:51:56;-11385.38;;;16.29;33.54
10145;BME280;5113;41.822;23.564;2023-03-14T11:55:09;-11385.94;;;16.31;34.06
10145;BME280;5113;41.822;23.564;2023-03-14T11:58:22;-11389.47;;;16.44;33.35
10145;BME280;5113;41.822;23.564;2023-03-14T12:01:36;-11400.03;;;16.82;34.93
10145;BME280;5113;41.822;23.564;2023-03-14T12:04:59;-11406.53;;;17.05;34.64
10145;BME280;5113;41.822;23.564;2023-03-14T12:08:22;-11409.63;;;17.16;34.61
10145;BME280;5113;41.822;23.564;2023-03-14T12:11:36;-11391.59;;;16.51;34.70
10145;BME280;5113;41.822;23.564;2023-03-14T12:14:53;-11405.13;;;17.00;35.09
10145;BME280;5113;41.822;23.564;2023-03-14T12:18:00;-11407.94;;;17.10;35.01
10145;BME280;5113;41.822;23.564;2023-03-14T12:21:08;-11398.50;;;16.76;35.33
10145;BME280;5113;41.822;23.564;2023-03-14T12:24:18;-11372.44;;;15.82;36.52
10145;BME280;5113;41.822;23.564;2023-03-14T12:28:04;-11406.09;;;17.04;34.56
10145;BME280;5113;41.822;23.564;2023-03-14T12:31:42;-11405.97;;;17.03;31.89
10145;BME280;5113;41.822;23.564;2023-03-14T12:34:49;-11398.06;;;16.75;34.81
10145;BME280;5113;41.822;23.564;2023-03-14T12:37:55;-11414.13;;;17.33;34.61
10145;BME280;5113;41.822;23.564;2023-03-14T12:41:07;-11403.72;;;16.95;33.70
10145;BME280;5113;41.822;23.564;2023-03-14T12:44:41;-11409.34;;;17.15;34.40
10145;BME280;5113;41.822;23.564;2023-03-14T12:47:53;-11402.00;;;16.89;34.19
10145;BME280;5113;41.822;23.564;2023-03-14T12:51:02;-11403.72;;;16.95;34.44
10145;BME280;5113;41.822;23.564;2023-03-14T12:54:34;-11404.56;;;16.98;33.55
10145;BME280;5113;41.822;23.564;2023-03-14T12:57:46;-11418.94;;;17.50;33.42
10145;BME280;5113;41.822;23.564;2023-03-14T13:00:56;-11409.50;;;17.16;32.79
10145;BME280;5113;41.822;23.564;2023-03-14T13:04:09;-11402.56;;;16.91;34.93
10145;BME280;5113;41.822;23.564;2023-03-14T13:07:35;-11415.53;;;17.38;34.23
10145;BME280;5113;41.822;23.564;2023-03-14T13:10:48;-11416.81;;;17.42;31.71
10145;BME280;5113;41.822;23.564;2023-03-14T13:13:57;-11419.22;;;17.51;32.63
10145;BME280;5113;41.822;23.564;2023-03-14T13:17:09;-11411.47;;;17.23;32.97
10145;BME280;5113;41.822;23.564;2023-03-14T13:20:40;-11408.50;;;17.12;33.06
10145;BME280;5113;41.822;23.564;2023-03-14T13:23:56;-11401.88;;;16.89;35.13
10145;BME280;5113;41.822;23.564;2023-03-14T13:27:03;-11410.75;;;17.21;33.59
10145;BME280;5113;41.822;23.564;2023-03-14T13:30:23;-11405.41;;;17.01;34.14
10145;BME280;5113;41.822;23.564;2023-03-14T13:33:30;-11439.50;;;18.24;34.75
10145;BME280;5113;41.822;23.564;2023-03-14T13:36:40;-11431.47;;;17.95;32.87
10145;BME280;5113;41.822;23.564;2023-03-14T13:39:49;-11453.03;;;18.73;32.52
10145;BME280;5113;41.822;23.564;2023-03-14T13:43:03;-11452.47;;;18.71;34.48
10145;BME280;5113;41.822;23.564;2023-03-14T13:46:13;-11449.94;;;18.62;34.09
10145;BME280;5113;41.822;23.564;2023-03-14T13:49:22;-11444.16;;;18.41;34.71
10145;BME280;5113;41.822;23.564;2023-03-14T13:52:35;-11453.63;;;18.75;33.41
10145;BME280;5113;41.822;23.564;2023-03-14T13:55:42;-11459.41;;;18.96;33.18
10145;BME280;5113;41.822;23.564;2023-03-14T13:58:49;-11453.91;;;18.76;32.22
10145;BME280;5113;41.822;23.564;2023-03-14T14:01:58;-11441.06;;;18.30;33.16
10145;BME280;5113;41.822;23.564;2023-03-14T14:05:06;-11432.03;;;17.97;35.27
10145;BME280;5113;41.822;23.564;2023-03-14T14:08:14;-11445.16;;;18.44;34.98
10145;BME280;5113;41.822;23.564;2023-03-14T14:11:31;-11432.88;;;18.00;35.11
10145;BME280;5113;41.822;23.564;2023-03-14T14:14:58;-11435.84;;;18.11;36.23
10145;BME280;5113;41.822;23.564;2023-03-14T14:18:10;-11447.81;;;18.54;35.38
10145;BME280;5113;41.822;23.564;2023-03-14T14:21:18;-11434.44;;;18.06;36.80
10145;BME280;5113;41.822;23.564;2023-03-14T14:24:29;-11428.81;;;17.86;36.65
10145;BME280;5113;41.822;23.564;2023-03-14T14:27:39;-11423.00;;;17.65;37.22
10145;BME280;5113;41.822;23.564;2023-03-14T14:30:59;-11418.38;;;17.48;35.92
10145;BME280;5113;41.822;23.564;2023-03-14T14:34:18;-11422.44;;;17.63;36.35
10145;BME280;5113;41.822;23.564;2023-03-14T14:37:26;-11403.84;;;16.96;37.65
10145;BME280;5113;41.822;23.564;2023-03-14T14:40:34;-11416.09;;;17.40;37.42
10145;BME280;5113;41.822;23.564;2023-03-14T14:43:51;-11421.75;;;17.60;36.63
10145;BME280;5113;41.822;23.564;2023-03-14T14:46:58;-11408.50;;;17.12;38.31
10145;BME280;5113;41.822;23.564;2023-03-14T14:50:20;-11402.56;;;16.91;38.99
10145;BME280;5113;41.822;23.564;2023-03-14T14:53:29;-11375.53;;;15.94;39.74
10145;BME280;5113;41.822;23.564;2023-03-14T14:56:38;-11362.28;;;15.46;41.52
10145;BME280;5113;41.822;23.564;2023-03-14T14:59:44;-11356.66;;;15.26;40.84
10145;BME280;5113;41.822;23.564;2023-03-14T15:02:52;-11360.31;;;15.39;40.95
10145;BME280;5113;41.822;23.564;2023-03-14T15:06:00;-11344.81;;;14.83;41.89
10145;BME280;5113;41.822;23.564;2023-03-14T15:09:08;-11344.38;;;14.81;41.36
10145;BME280;5113;41.822;23.564;2023-03-14T15:12:17;-11334.94;;;14.47;42.67
10145;BME280;5113;41.822;23.564;2023-03-14T15:15:25;-11341.44;;;14.71;42.70
10145;BME280;5113;41.822;23.564;2023-03-14T15:18:31;-11336.38;;;14.52;42.22
10145;BME280;5113;41.822;23.564;2023-03-14T15:21:38;-11325.78;;;14.14;43.27
10145;BME280;5113;41.822;23.564;2023-03-14T15:24:44;-11336.38;;;14.52;42.06
10145;BME280;5113;41.822;23.564;2023-03-14T15:27:52;-11333.56;;;14.42;42.49
10145;BME280;5113;41.822;23.564;2023-03-14T15:30:59;-11336.94;;;14.54;41.59
10145;BME280;5113;41.822;23.564;2023-03-14T15:34:05;-11332.69;;;14.39;42.42
10145;BME280;5113;41.822;23.564;2023-03-14T15:37:13;-11322.00;;;14.01;43.33
10145;BME280;5113;41.822;23.564;2023-03-14T15:40:22;-11309.88;;;13.57;44.47
10145;BME280;5113;41.822;23.564;2023-03-14T15:43:33;-11307.34;;;13.48;45.15
10145;BME280;5113;41.822;23.564;2023-03-14T15:46:40;-11313.41;;;13.70;44.27
10145;BME280;5113;41.822;23.564;2023-03-14T15:49:46;-11294.69;;;13.02;46.35
10145;BME280;5113;41.822;23.564;2023-03-14T15:52:52;-11292.72;;;12.95;45.88
10145;BME280;5113;41.822;23.564;2023-03-14T15:55:59;-11296.94;;;13.10;45.62
10145;BME280;5113;41.822;23.564;2023-03-14T15:59:07;-11292.16;;;12.93;46.42
10145;BME280;5113;41.822;23.564;2023-03-14T16:02:13;-11288.78;;;12.81;46.38
10145;BME280;5113;41.822;23.564;2023-03-14T16:05:20;-11287.06;;;12.75;47.02
10145;BME280;5113;41.822;23.564;2023-03-14T16:08:26;-11268.22;;;12.07;49.52
10145;BME280;5113;41.822;23.564;2023-03-14T16:11:33;-11267.38;;;12.04;49.33
10145;BME280;5113;41.822;23.564;2023-03-14T16:14:41;-11265.13;;;11.96;49.91
10145;BME280;5113;41.822;23.564;2023-03-14T16:17:51;-11261.75;;;11.83;50.27
10145;BME280;5113;41.822;23.564;2023-03-14T16:20:59;-11255.00;;;11.59;51.13
10145;BME280;5113;41.822;23.564;2023-03-14T16:24:06;-11249.37;;;11.39;51.92
10145;BME280;5113;41.822;23.564;2023-03-14T16:27:13;-11244.31;;;11.20;52.47
10145;BME280;5113;41.822;23.564;2023-03-14T16:30:21;-11252.88;;;11.51;51.65
10145;BME280;5113;41.822;23.564;2023-03-14T16:33:27;-11243.47;;;11.17;52.94
10145;BME280;5113;41.822;23.564;2023-03-14T16:36:34;-11239.66;;;11.04;53.50
10145;BME280;5113;41.822;23.564;2023-03-14T16:39:40;-11242.03;;;11.12;52.97
10145;BME280;5113;41.822;23.564;2023-03-14T16:43:07;-11232.91;;;10.79;54.25
10145;BME280;5113;41.822;23.564;2023-03-14T16:46:21;-11233.88;;;10.83;53.89
10145;BME280;5113;41.822;23.564;2023-03-14T16:49:29;-11233.19;;;10.80;53.60
10145;BME280;5113;41.822;23.564;2023-03-14T16:52:35;-11226.28;;;10.55;54.31
10145;BME280;5113;41.822;23.564;2023-03-14T16:55:41;-11228.25;;;10.63;54.38
10145;BME280;5113;41.822;23.564;2023-03-14T16:58:48;-11222.22;;;10.41;54.80
10145;BME280;5113;41.822;23.564;2023-03-14T17:01:56;-11220.66;;;10.35;54.62
10145;BME280;5113;41.822;23.564;2023-03-14T17:05:03;-11215.03;;;10.15;55.66
10145;BME280;5113;41.822;23.564;2023-03-14T17:08:10;-11216.31;;;10.19;55.75
10145;BME280;5113;41.822;23.564;2023-03-14T17:11:16;-11220.09;;;10.33;54.55
10145;BME280;5113;41.822;23.564;2023-03-14T17:14:23;-11212.94;;;10.07;55.84
10145;BME280;5113;41.822;23.564;2023-03-14T17:17:31;-11214.63;;;10.13;55.53
10145;BME280;5113;41.822;23.564;2023-03-14T17:20:38;-11212.78;;;10.07;55.72
10145;BME280;5113;41.822;23.564;2023-03-14T17:23:46;-11207.16;;;9.86;56.91
10145;BME280;5113;41.822;23.564;2023-03-14T17:26:52;-11205.63;;;9.81;57.81
10145;BME280;5113;41.822;23.564;2023-03-14T17:29:59;-11202.81;;;9.71;57.56
10145;BME280;5113;41.822;23.564;2023-03-14T17:33:06;-11200.97;;;9.64;58.09
10145;BME280;5113;41.822;23.564;2023-03-14T17:36:13;-11202.66;;;9.70;57.18
10145;BME280;5113;41.822;23.564;2023-03-14T17:39:22;-11192.25;;;9.33;59.75
10145;BME280;5113;41.822;23.564;2023-03-14T17:42:28;-11194.22;;;9.40;59.30
10145;BME280;5113;41.822;23.564;2023-03-14T17:45:35;-11194.50;;;9.41;58.83
10145;BME280;5113;41.822;23.564;2023-03-14T17:48:44;-11193.66;;;9.38;58.53
10145;BME280;5113;41.822;23.564;2023-03-14T17:51:50;-11188.88;;;9.20;59.80
10145;BME280;5113;41.822;23.564;2023-03-14T17:54:57;-11195.78;;;9.45;57.78
10145;BME280;5113;41.822;23.564;2023-03-14T17:58:04;-11191.28;;;9.29;59.07
10145;BME280;5113;41.822;23.564;2023-03-14T18:01:12;-11183.81;;;9.02;60.95
10145;BME280;5113;41.822;23.564;2023-03-14T18:04:21;-11185.09;;;9.07;60.68
10145;BME280;5113;41.822;23.564;2023-03-14T18:07:28;-11185.94;;;9.10;59.98
10145;BME280;5113;41.822;23.564;2023-03-14T18:10:34;-11181.00;;;8.92;60.77
10145;BME280;5113;41.822;23.564;2023-03-14T18:13:41;-11179.88;;;8.88;60.78
10145;BME280;5113;41.822;23.564;2023-03-14T18:16:47;-11177.78;;;8.80;61.28
10145;BME280;5113;41.822;23.564;2023-03-14T18:19:56;-11175.25;;;8.71;61.96
10145;BME280;5113;41.822;23.564;2023-03-14T18:23:02;-11173.72;;;8.66;62.34
10145;BME280;5113;41.822;23.564;2023-03-14T18:26:10;-11173.16;;;8.64;62.79
10145;BME280;5113;41.822;23.564;2023-03-14T18:29:17;-11174.81;;;8.70;62.06
10145;BME280;5113;41.822;23.564;2023-03-14T18:32:23;-11170.06;;;8.52;63.20
10145;BME280;5113;41.822;23.564;2023-03-14T18:35:30;-11170.06;;;8.52;63.57
10145;BME280;5113;41.822;23.564;2023-03-14T18:38:37;-11164.72;;;8.33;65.69
10145;BME280;5113;41.822;23.564;2023-03-14T18:41:47;-11167.94;;;8.45;64.09
10145;BME280;5113;41.822;23.564;2023-03-14T18:44:53;-11165.56;;;8.36;65.42
10145;BME280;5113;41.822;23.564;2023-03-14T18:47:59;-11167.25;;;8.42;65.59
10145;BME280;5113;41.822;23.564;2023-03-14T18:51:07;-11166.69;;;8.40;65.63
10145;BME280;5113;41.822;23.564;2023-03-14T18:54:15;-11163.88;;;8.30;66.17
10145;BME280;5113;41.822;23.564;2023-03-14T18:57:21;-11168.09;;;8.45;65.32
10145;BME280;5113;41.822;23.564;2023-03-14T19:00:27;-11164.16;;;8.31;66.06
10145;BME280;5113;41.822;23.564;2023-03-14T19:03:34;-11164.00;;;8.31;66.59
10145;BME280;5113;41.822;23.564;2023-03-14T19:06:43;-11161.19;;;8.20;67.45
10145;BME280;5113;41.822;23.564;2023-03-14T19:09:49;-11160.78;;;8.19;67.85
10145;BME280;5113;41.822;23.564;2023-03-14T19:12:56;-11159.38;;;8.14;67.72
10145;BME280;5113;41.822;23.564;2023-03-14T19:16:03;-11158.81;;;8.12;68.54
10145;BME280;5113;41.822;23.564;2023-03-14T19:19:09;-11163.03;;;8.27;66.87
10145;BME280;5113;41.822;23.564;2023-03-14T19:22:17;-11156.84;;;8.05;68.52
10145;BME280;5113;41.822;23.564;2023-03-14T19:25:23;-11160.34;;;8.17;67.50
10145;BME280;5113;41.822;23.564;2023-03-14T19:28:30;-11158.09;;;8.09;68.97
10145;BME280;5113;41.822;23.564;2023-03-14T19:31:37;-11156.41;;;8.03;69.40
10145;BME280;5113;41.822;23.564;2023-03-14T19:34:44;-11155.44;;;8.00;69.76
10145;BME280;5113;41.822;23.564;2023-03-14T19:37:51;-11152.34;;;7.88;70.86
10145;BME280;5113;41.822;23.564;2023-03-14T19:40:58;-11150.50;;;7.82;71.77
10145;BME280;5113;41.822;23.564;2023-03-14T19:44:04;-11150.09;;;7.80;72.51
10145;BME280;5113;41.822;23.564;2023-03-14T19:47:11;-11150.22;;;7.81;72.39
10145;BME280;5113;41.822;23.564;2023-03-14T19:50:17;-11147.56;;;7.71;73.06
10145;BME280;5113;41.822;23.564;2023-03-14T19:53:25;-11150.94;;;7.83;72.18
10145;BME280;5113;41.822;23.564;2023-03-14T19:56:32;-11142.50;;;7.53;74.62
10145;BME280;5113;41.822;23.564;2023-03-14T19:59:38;-11135.47;;;7.27;76.46
10145;BME280;5113;41.822;23.564;2023-03-14T20:02:45;-11141.66;;;7.50;76.01
10145;BME280;5113;41.822;23.564;2023-03-14T20:05:51;-11139.28;;;7.41;76.48
10145;BME280;5113;41.822;23.564;2023-03-14T20:08:59;-11136.19;;;7.30;78.27
10145;BME280;5113;41.822;23.564;2023-03-14T20:12:09;-11135.06;;;7.26;77.91
10145;BME280;5113;41.822;23.564;2023-03-14T20:15:16;-11132.94;;;7.18;78.65
10145;BME280;5113;41.822;23.564;2023-03-14T20:18:24;-11132.25;;;7.16;79.46
10145;BME280;5113;41.822;23.564;2023-03-14T20:21:30;-11130.56;;;7.10;79.84
10145;BME280;5113;41.822;23.564;2023-03-14T20:24:38;-11129.44;;;7.06;79.85
10145;BME280;5113;41.822;23.564;2023-03-14T20:27:45;-11128.88;;;7.04;80.34
10145;BME280;5113;41.822;23.564;2023-03-14T20:30:52;-11119.88;;;6.71;83.58
10145;BME280;5113;41.822;23.564;2023-03-14T20:33:58;-11116.38;;;6.58;84.25
10145;BME280;5113;41.822;23.564;2023-03-14T20:37:05;-11113.00;;;6.46;86.10
10145;BME280;5113;41.822;23.564;2023-03-14T20:40:13;-11111.88;;;6.42;86.21
10145;BME280;5113;41.822;23.564;2023-03-14T20:43:19;-11103.31;;;6.11;89.31
10145;BME280;5113;41.822;23.564;2023-03-14T20:46:26;-11107.13;;;6.25;89.42
10145;BME280;5113;41.822;23.564;2023-03-14T20:49:33;-11108.94;;;6.32;88.45
10145;BME280;5113;41.822;23.564;2023-03-14T20:52:39;-11108.78;;;6.31;87.83
10145;BME280;5113;41.822;23.564;2023-03-14T20:55:47;-11106.00;;;6.21;89.71
10145;BME280;5113;41.822;23.564;2023-03-14T20:58:54;-11103.59;;;6.12;90.69
10145;BME280;5113;41.822;23.564;2023-03-14T21:02:00;-11102.75;;;6.09;91.17
10145;BME280;5113;41.822;23.564;2023-03-14T21:05:07;-11103.19;;;6.11;90.21
10145;BME280;5113;41.822;23.564;2023-03-14T21:08:15;-11102.91;;;6.10;91.31
10145;BME280;5113;41.822;23.564;2023-03-14T21:11:24;-11102.75;;;6.09;91.15
10145;BME280;5113;41.822;23.564;2023-03-14T21:14:30;-11094.31;;;5.79;93.71
10145;BME280;5113;41.822;23.564;2023-03-14T21:17:37;-11093.63;;;5.76;94.41
10145;BME280;5113;41.822;23.564;2023-03-14T21:20:44;-11089.69;;;5.62;95.48
10145;BME280;5113;41.822;23.564;2023-03-14T21:23:50;-11084.06;;;5.42;97.62
10145;BME280;5113;41.822;23.564;2023-03-14T21:26:59;-11089.13;;;5.60;96.60
10145;BME280;5113;41.822;23.564;2023-03-14T21:30:08;-11081.97;;;5.34;97.26
10145;BME280;5113;41.822;23.564;2023-03-14T21:33:15;-11086.59;;;5.51;97.14
10145;BME280;5113;41.822;23.564;2023-03-14T21:36:21;-11088.84;;;5.59;95.08
10145;BME280;5113;41.822;23.564;2023-03-14T21:39:28;-11088.00;;;5.56;95.80
10145;BME280;5113;41.822;23.564;2023-03-14T21:42:36;-11077.63;;;5.18;98.75
10145;BME280;5113;41.822;23.564;2023-03-14T21:45:43;-11077.06;;;5.16;98.81
10145;BME280;5113;41.822;23.564;2023-03-14T21:48:50;-11077.63;;;5.18;99.34
10145;BME280;5113;41.822;23.564;2023-03-14T21:51:57;-11071.31;;;4.95;100.00
10145;BME280;5113;41.822;23.564;2023-03-14T21:55:05;-11076.63;;;5.15;100.00
10145;BME280;5113;41.822;23.564;2023-03-14T21:58:13;-11071.03;;;4.94;100.00
10145;BME280;5113;41.822;23.564;2023-03-14T22:01:20;-11070.75;;;4.93;100.00
10145;BME280;5113;41.822;23.564;2023-03-14T22:04:28;-11066.81;;;4.79;100.00
10145;BME280;5113;41.822;23.564;2023-03-14T22:07:39;-11072.00;;;4.98;100.00
10145;BME280;5113;41.822;23.564;2023-03-14T22:10:47;-11067.66;;;4.82;100.00
10145;BME280;5113;41.822;23.564;2023-03-14T22:13:55;-11063.03;;;4.65;100.00
10145;BME280;5113;41.822;23.564;2023-03-14T22:17:01;-11065.28;;;4.74;100.00
10145;BME280;5113;41.822;23.564;2023-03-14T22:20:08;-11063.44;;;4.67;100.00
10145;BME280;5113;41.822;23.564;2023-03-14T22:23:17;-11064.56;;;4.71;100.00
10145;BME280;5113;41.822;23.564;2023-03-14T22:26:23;-11060.91;;;4.58;100.00
10145;BME280;5113;41.822;23.564;2023-03-14T22:29:31;-11064.84;;;4.72;100.00
10145;BME280;5113;41.822;23.564;2023-03-14T22:32:41;-11064.16;;;4.70;100.00
10145;BME280;5113;41.822;23.564;2023-03-14T22:35:48;-11058.53;;;4.49;100.00
10145;BME280;5113;41.822;23.564;2023-03-14T22:38:54;-11052.34;;;4.27;100.00
10145;BME280;5113;41.822;23.564;2023-03-14T22:42:02;-11056.56;;;4.42;100.00
10145;BME280;5113;41.822;23.564;2023-03-14T22:45:10;-11056.72;;;4.43;100.00
10145;BME280;5113;41.822;23.564;2023-03-14T22:48:16;-11057.13;;;4.44;100.00
10145;BME280;5113;41.822;23.564;2023-03-14T22:51:23;-11045.34;;;4.02;100.00
10145;BME280;5113;41.822;23.564;2023-03-14T22:54:29;-11053.19;;;4.30;100.00
10145;BME280;5113;41.822;23.564;2023-03-14T22:57:36;-11049.28;;;4.16;100.00
10145;BME280;5113;41.822;23.564;2023-03-14T23:00:44;-11052.06;;;4.26;100.00
10145;BME280;5113;41.822;23.564;2023-03-14T23:03:50;-11044.50;;;3.98;100.00
10145;BME280;5113;41.822;23.564;2023-03-14T23:06:57;-11042.53;;;3.91;100.00
10145;BME280;5113;41.822;23.564;2023-03-14T23:10:04;-11040.44;;;3.84;100.00
10145;BME280;5113;41.822;23.564;2023-03-14T23:13:11;-11041.41;;;3.87;100.00
10145;BME280;5113;41.822;23.564;2023-03-14T23:16:19;-11034.13;;;3.61;100.00
10145;BME280;5113;41.822;23.564;2023-03-14T23:19:37;-11032.44;;;3.55;100.00
10145;BME280;5113;41.822;23.564;2023-03-14T23:22:44;-11034.97;;;3.64;100.00
10145;BME280;5113;41.822;23.564;2023-03-14T23:25:50;-11030.47;;;3.48;100.00
10145;BME280;5113;41.822;23.564;2023-03-14T23:28:57;-11031.88;;;3.53;100.00
10145;BME280;5113;41.822;23.564;2023-03-14T23:32:05;-11030.19;;;3.47;100.00
10145;BME280;5113;41.822;23.564;2023-03-14T23:35:13;-11033.97;;;3.60;100.00
10145;BME280;5113;41.822;23.564;2023-03-14T23:38:19;-11030.75;;;3.49;100.00
10145;BME280;5113;41.822;23.564;2023-03-14T23:41:25;-11035.53;;;3.66;100.00
10145;BME280;5113;41.822;23.564;2023-03-14T23:44:32;-11031.03;;;3.50;100.00
10145;BME280;5113;41.822;23.564;2023-03-14T23:47:39;-11009.84;;;2.73;100.00
10145;BME280;5113;41.822;23.564;2023-03-14T23:50:46;-11013.66;;;2.87;100.00
10145;BME280;5113;41.822;23.564;2023-03-14T23:53:52;-11019.66;;;3.09;100.00
10145;BME280;5113;41.822;23.564;2023-03-14T23:56:58;-11016.72;;;2.98;100.00
